createdAt,value
2023-08-17T00:02:11.310Z,26.10
2023-08-17T00:05:00.169Z,26.20
2023-08-17T00:07:48.963Z,26.10
2023-08-17T00:10:42.379Z,26.20
2023-08-17T00:13:31.630Z,26.20
2023-08-17T00:16:20.735Z,26.20
2023-08-17T00:19:09.689Z,26.20
2023-08-17T00:21:58.709Z,26.20
2023-08-17T00:24:47.665Z,26.10
2023-08-17T00:27:38.180Z,26.20
2023-08-17T00:30:27.076Z,26.20
2023-08-17T00:33:15.851Z,26.10
2023-08-17T00:36:05.838Z,26.10
2023-08-17T00:38:59.050Z,26.10
2023-08-17T00:41:47.928Z,26.00
2023-08-17T00:44:38.425Z,26.00
2023-08-17T00:47:27.744Z,26.10
2023-08-17T00:50:17.348Z,26.10
2023-08-17T00:53:06.630Z,26.00
2023-08-17T00:55:56.575Z,26.00
2023-08-17T00:58:45.833Z,26.00
2023-08-17T01:01:36.300Z,26.00
2023-08-17T01:04:25.331Z,26.00
2023-08-17T01:07:14.167Z,26.00
2023-08-17T01:10:04.421Z,25.90
2023-08-17T01:13:00.699Z,25.90
2023-08-17T01:15:54.069Z,26.00
2023-08-17T01:18:47.606Z,25.90
2023-08-17T01:21:43.285Z,25.90
2023-08-17T01:24:34.132Z,25.90
2023-08-17T01:27:23.237Z,25.90
2023-08-17T01:30:14.233Z,25.90
2023-08-17T01:33:09.056Z,25.90
2023-08-17T01:36:07.743Z,25.90
2023-08-17T01:38:59.565Z,25.90
2023-08-17T01:41:50.324Z,25.80
2023-08-17T01:44:39.842Z,25.90
2023-08-17T01:47:29.444Z,25.90
2023-08-17T01:50:18.422Z,25.90
2023-08-17T01:53:07.343Z,25.80
2023-08-17T01:55:56.707Z,25.80
2023-08-17T01:58:48.092Z,25.80
2023-08-17T02:01:36.970Z,25.80
2023-08-17T02:04:27.559Z,25.80
2023-08-17T02:07:16.241Z,25.80
2023-08-17T02:10:05.431Z,25.70
2023-08-17T02:13:02.075Z,25.70
2023-08-17T02:15:59.096Z,25.60
2023-08-17T02:18:47.912Z,25.70
2023-08-17T02:21:36.842Z,25.70
2023-08-17T02:24:26.041Z,25.70
2023-08-17T02:27:15.851Z,25.60
2023-08-17T02:30:05.358Z,25.60
2023-08-17T02:32:56.225Z,25.60
2023-08-17T02:35:45.210Z,25.70
2023-08-17T02:38:34.167Z,25.60
2023-08-17T02:41:23.000Z,25.60
2023-08-17T02:44:11.977Z,25.60
2023-08-17T02:47:01.004Z,25.50
2023-08-17T02:49:51.903Z,25.50
2023-08-17T02:52:40.823Z,25.40
2023-08-17T02:55:29.723Z,25.40
2023-08-17T02:58:18.613Z,25.50
2023-08-17T03:01:07.575Z,25.40
2023-08-17T03:03:56.982Z,25.50
2023-08-17T03:06:47.391Z,25.30
2023-08-17T03:09:36.169Z,25.20
2023-08-17T03:12:24.998Z,25.30
2023-08-17T03:15:13.768Z,25.30
2023-08-17T03:18:03.074Z,25.20
2023-08-17T03:20:51.942Z,25.00
2023-08-17T03:23:43.036Z,25.10
2023-08-17T03:26:31.933Z,25.20
2023-08-17T03:29:21.190Z,25.20
2023-08-17T03:32:10.034Z,25.10
2023-08-17T03:34:58.973Z,25.10
2023-08-17T03:37:48.148Z,25.10
2023-08-17T03:40:38.648Z,25.10
2023-08-17T03:43:28.238Z,25.00
2023-08-17T03:46:16.993Z,25.00
2023-08-17T03:49:06.082Z,25.00
2023-08-17T03:51:55.222Z,25.10
2023-08-17T03:54:43.949Z,25.10
2023-08-17T03:57:35.469Z,25.10
2023-08-17T04:00:25.833Z,25.00
2023-08-17T04:03:19.825Z,25.10
2023-08-17T04:06:11.337Z,25.00
2023-08-17T04:09:00.132Z,25.00
2023-08-17T04:11:48.834Z,24.90
2023-08-17T04:14:41.123Z,24.90
2023-08-17T04:17:30.576Z,24.90
2023-08-17T04:20:20.583Z,25.00
2023-08-17T04:23:09.306Z,25.00
2023-08-17T04:25:58.057Z,24.90
2023-08-17T04:28:46.963Z,24.90
2023-08-17T04:31:39.144Z,25.00
2023-08-17T04:34:27.926Z,24.90
2023-08-17T04:37:17.285Z,25.00
2023-08-17T04:40:07.127Z,24.90
2023-08-17T04:42:56.841Z,25.00
2023-08-17T04:45:49.151Z,24.90
2023-08-17T04:48:40.456Z,24.90
2023-08-17T04:51:29.503Z,25.00
2023-08-17T04:54:19.416Z,25.00
2023-08-17T04:57:08.371Z,25.00
2023-08-17T04:59:58.110Z,25.00
2023-08-17T05:02:47.158Z,25.10
2023-08-17T05:05:38.601Z,25.10
2023-08-17T05:08:31.278Z,25.10
2023-08-17T05:11:20.196Z,25.10
2023-08-17T05:14:09.616Z,25.00
2023-08-17T05:16:59.049Z,25.10
2023-08-17T05:19:47.816Z,25.10
2023-08-17T05:22:38.997Z,25.00
2023-08-17T05:25:27.687Z,25.00
2023-08-17T05:28:16.464Z,25.00
2023-08-17T05:31:08.694Z,25.00
2023-08-17T05:34:01.420Z,25.10
2023-08-17T05:36:50.283Z,25.10
2023-08-17T05:39:40.565Z,25.10
2023-08-17T05:42:29.361Z,25.20
2023-08-17T05:45:18.497Z,25.20
2023-08-17T05:48:08.137Z,25.30
2023-08-17T05:50:58.593Z,25.30
2023-08-17T05:53:47.280Z,25.40
2023-08-17T05:56:37.529Z,25.40
2023-08-17T05:59:26.384Z,25.50
2023-08-17T06:02:15.140Z,25.50
2023-08-17T06:05:04.542Z,25.60
2023-08-17T06:07:56.089Z,25.60
2023-08-17T06:10:44.840Z,25.60
2023-08-17T06:13:36.588Z,25.70
2023-08-17T06:16:25.698Z,25.70
2023-08-17T06:19:14.767Z,25.80
2023-08-17T06:22:03.947Z,26.00
2023-08-17T06:24:52.767Z,26.00
2023-08-17T06:27:44.597Z,26.10
2023-08-17T06:30:35.221Z,26.20
2023-08-17T06:33:25.260Z,26.20
2023-08-17T06:36:17.648Z,26.20
2023-08-17T06:39:06.863Z,26.20
2023-08-17T06:41:56.543Z,26.20
2023-08-17T06:44:45.702Z,26.30
2023-08-17T06:47:36.227Z,26.30
2023-08-17T06:50:25.132Z,26.40
2023-08-17T06:53:14.383Z,26.50
2023-08-17T06:56:03.856Z,26.70
2023-08-17T06:58:52.970Z,26.80
2023-08-17T07:01:44.852Z,26.80
2023-08-17T07:04:35.656Z,26.80
2023-08-17T07:07:24.893Z,26.80
2023-08-17T07:10:14.473Z,26.90
2023-08-17T07:13:04.813Z,26.90
2023-08-17T07:15:54.282Z,27.00
2023-08-17T07:18:43.318Z,27.20
2023-08-17T07:21:33.910Z,27.20
2023-08-17T07:24:23.217Z,27.40
2023-08-17T07:27:12.323Z,27.30
2023-08-17T07:30:01.400Z,27.30
2023-08-17T07:32:50.197Z,27.20
2023-08-17T07:35:39.488Z,27.10
2023-08-17T07:38:30.079Z,27.10
2023-08-17T07:41:20.613Z,27.10
2023-08-17T07:44:10.061Z,27.20
2023-08-17T07:47:00.249Z,27.10
2023-08-17T07:49:49.929Z,27.20
2023-08-17T07:52:39.102Z,27.20
2023-08-17T07:55:30.280Z,27.30
2023-08-17T07:58:19.267Z,27.40
2023-08-17T08:01:08.358Z,27.40
2023-08-17T08:03:57.605Z,27.40
2023-08-17T08:06:46.711Z,27.50
2023-08-17T08:09:35.841Z,27.50
2023-08-17T08:12:26.363Z,27.60
2023-08-17T08:15:15.544Z,27.80
2023-08-17T08:18:05.765Z,28.10
2023-08-17T08:20:55.404Z,28.40
2023-08-17T08:23:44.369Z,28.60
2023-08-17T08:26:33.881Z,29.20
2023-08-17T08:29:24.203Z,29.70
2023-08-17T08:32:13.468Z,30.30
2023-08-17T08:35:02.760Z,30.90
2023-08-17T08:37:51.598Z,30.90
2023-08-17T08:40:43.386Z,30.70
2023-08-17T08:43:33.268Z,30.50
2023-08-17T08:46:26.180Z,30.70
2023-08-17T08:49:18.795Z,31.30
2023-08-17T08:52:10.963Z,31.70
2023-08-17T08:55:01.219Z,32.00
2023-08-17T08:57:52.295Z,32.10
2023-08-17T09:00:42.512Z,32.20
2023-08-17T09:03:35.290Z,32.20
2023-08-17T09:06:25.667Z,32.10
2023-08-17T09:09:17.327Z,32.10
2023-08-17T09:12:08.643Z,31.70
2023-08-17T09:14:57.558Z,31.40
2023-08-17T09:17:46.532Z,31.70
2023-08-17T09:23:37.482Z,32.80
2023-08-17T09:26:26.731Z,33.30
2023-08-17T09:29:20.390Z,33.80
2023-08-17T09:32:11.525Z,33.90
2023-08-17T09:35:02.827Z,34.30
2023-08-17T09:37:55.517Z,34.20
2023-08-17T09:40:45.518Z,34.60
2023-08-17T09:43:35.299Z,35.00
2023-08-17T09:46:25.394Z,36.10
2023-08-17T09:49:14.296Z,36.90
2023-08-17T09:52:04.107Z,37.70
2023-08-17T09:54:57.096Z,38.20
2023-08-17T09:57:46.355Z,38.90
2023-08-17T10:00:36.420Z,38.90
2023-08-17T10:03:27.017Z,38.10
2023-08-17T10:06:18.620Z,39.20
2023-08-17T10:09:09.498Z,39.10
2023-08-17T10:12:02.263Z,39.10
2023-08-17T10:14:57.929Z,39.80
2023-08-17T10:17:55.806Z,39.00
2023-08-17T10:20:52.227Z,40.50
2023-08-17T10:23:43.084Z,41.50
2023-08-17T10:26:32.788Z,41.40
2023-08-17T10:29:25.115Z,41.40
2023-08-17T10:32:17.174Z,42.50
2023-08-17T10:35:08.407Z,43.00
2023-08-17T10:37:57.425Z,42.70
2023-08-17T10:40:46.775Z,43.40
2023-08-17T10:43:36.311Z,44.30
2023-08-17T10:46:35.521Z,44.80
2023-08-17T10:49:29.400Z,45.20
2023-08-17T10:52:31.603Z,45.50
2023-08-17T10:55:38.785Z,45.30
2023-08-17T10:58:27.660Z,45.50
2023-08-17T11:01:22.474Z,45.90
2023-08-17T11:04:14.359Z,46.20
2023-08-17T11:07:05.282Z,46.30
2023-08-17T11:09:57.227Z,46.50
2023-08-17T11:12:46.490Z,46.10
2023-08-17T11:15:40.434Z,46.90
2023-08-17T11:18:29.719Z,46.10
2023-08-17T11:21:20.957Z,46.40
2023-08-17T11:24:12.171Z,46.40
2023-08-17T11:27:01.526Z,47.30
2023-08-17T11:29:50.677Z,47.90
2023-08-17T11:32:40.916Z,48.50
2023-08-17T11:35:30.278Z,48.60
2023-08-17T11:38:21.204Z,48.40
2023-08-17T11:41:18.449Z,49.30
2023-08-17T11:44:11.894Z,49.70
2023-08-17T11:47:02.581Z,50.20
2023-08-17T11:49:52.710Z,51.00
2023-08-17T11:52:46.361Z,51.20
2023-08-17T11:55:37.931Z,50.80
2023-08-17T11:58:40.205Z,49.20
2023-08-17T12:01:29.441Z,50.40
2023-08-17T12:04:19.377Z,51.70
2023-08-17T12:07:09.011Z,50.20
2023-08-17T12:09:58.589Z,46.70
2023-08-17T12:12:50.503Z,44.60
2023-08-17T12:15:42.239Z,43.60
2023-08-17T12:18:37.330Z,44.70
2023-08-17T12:21:32.432Z,44.10
2023-08-17T12:24:22.283Z,44.50
2023-08-17T12:27:12.029Z,41.40
2023-08-17T12:30:03.277Z,40.00
2023-08-17T12:32:58.413Z,38.60
2023-08-17T12:35:47.906Z,37.80
2023-08-17T12:38:39.389Z,37.30
2023-08-17T12:41:29.152Z,37.10
2023-08-17T12:44:18.182Z,37.00
2023-08-17T12:47:08.785Z,36.60
2023-08-17T12:49:57.588Z,36.10
2023-08-17T12:52:47.642Z,35.90
2023-08-17T12:55:38.045Z,35.70
2023-08-17T12:58:26.987Z,35.70
2023-08-17T13:01:16.219Z,35.50
2023-08-17T13:04:07.245Z,35.40
2023-08-17T13:06:56.942Z,35.30
2023-08-17T13:09:47.698Z,34.80
2023-08-17T13:12:36.674Z,35.00
2023-08-17T13:15:25.666Z,34.70
2023-08-17T13:18:14.678Z,34.60
2023-08-17T13:21:05.374Z,34.30
2023-08-17T13:23:55.300Z,34.20
2023-08-17T13:26:46.238Z,34.20
2023-08-17T13:29:36.833Z,34.20
2023-08-17T13:32:25.979Z,34.30
2023-08-17T13:35:16.307Z,34.30
2023-08-17T13:38:07.050Z,34.30
2023-08-17T13:40:56.434Z,34.40
2023-08-17T13:43:45.675Z,34.20
2023-08-17T13:46:34.893Z,34.00
2023-08-17T13:49:23.746Z,34.00
2023-08-17T13:52:12.605Z,33.90
2023-08-17T13:55:02.829Z,33.90
2023-08-17T13:57:54.156Z,33.80
2023-08-17T14:00:43.192Z,33.60
2023-08-17T14:03:34.565Z,33.70
2023-08-17T14:06:23.597Z,33.60
2023-08-17T14:09:12.902Z,33.50
2023-08-17T14:12:03.739Z,33.40
2023-08-17T14:14:52.878Z,33.40
2023-08-17T14:17:42.072Z,33.40
2023-08-17T14:20:31.403Z,33.20
2023-08-17T14:23:20.372Z,33.10
2023-08-17T14:26:09.678Z,33.00
2023-08-17T14:29:00.141Z,33.10
2023-08-17T14:31:49.283Z,33.10
2023-08-17T14:34:38.288Z,33.00
2023-08-17T14:37:27.203Z,33.00
2023-08-17T14:40:16.337Z,32.90
2023-08-17T14:43:05.473Z,32.90
2023-08-17T14:45:56.520Z,32.90
2023-08-17T14:48:45.713Z,32.90
2023-08-17T14:51:39.731Z,32.90
2023-08-17T14:54:29.324Z,32.90
2023-08-17T14:57:19.272Z,32.90
2023-08-17T15:03:07.178Z,32.70
2023-08-17T15:05:56.640Z,32.70
2023-08-17T15:08:45.503Z,32.70
2023-08-17T15:11:34.252Z,32.60
2023-08-17T15:14:23.571Z,32.60
2023-08-17T15:17:13.840Z,32.50
2023-08-17T15:20:05.065Z,32.40
2023-08-17T15:22:54.289Z,32.40
2023-08-17T15:25:43.185Z,32.40
2023-08-17T15:28:33.270Z,32.40
2023-08-17T15:31:22.277Z,32.30
2023-08-17T15:34:11.164Z,32.30
2023-08-17T15:37:01.836Z,32.30
2023-08-17T15:39:50.654Z,32.30
2023-08-17T15:42:39.601Z,32.30
2023-08-17T15:45:28.404Z,32.20
2023-08-17T15:48:17.485Z,32.20
2023-08-17T15:51:06.455Z,32.10
2023-08-17T15:53:59.126Z,32.10
2023-08-17T15:56:47.914Z,32.10
2023-08-17T15:59:37.317Z,32.00
2023-08-17T16:02:26.488Z,32.00
2023-08-17T16:05:15.385Z,32.00
2023-08-17T16:08:04.656Z,32.00
2023-08-17T16:10:55.375Z,32.00
2023-08-17T16:13:47.003Z,32.00
2023-08-17T16:16:36.113Z,32.00
2023-08-17T16:19:24.901Z,31.90
2023-08-17T16:22:17.182Z,31.80
2023-08-17T16:25:07.402Z,31.70
2023-08-17T16:27:58.117Z,31.70
2023-08-17T16:30:47.599Z,31.70
2023-08-17T16:33:37.675Z,31.60
2023-08-17T16:36:26.434Z,31.50
2023-08-17T16:39:15.460Z,31.50
2023-08-17T16:42:04.979Z,31.40
2023-08-17T16:44:56.124Z,31.30
2023-08-17T16:47:45.206Z,31.20
2023-08-17T16:50:34.574Z,31.10
2023-08-17T16:53:23.432Z,31.00
2023-08-17T16:56:12.194Z,30.90
2023-08-17T16:59:02.636Z,30.90
2023-08-17T17:01:57.592Z,30.80
2023-08-17T17:04:46.464Z,30.70
2023-08-17T17:07:36.077Z,30.70
2023-08-17T17:10:24.967Z,30.70
2023-08-17T17:13:13.645Z,30.70
2023-08-17T17:16:02.972Z,30.60
2023-08-17T17:18:56.016Z,30.60
2023-08-17T17:21:44.728Z,30.60
2023-08-17T17:24:33.705Z,30.60
2023-08-17T17:27:22.554Z,30.50
2023-08-17T17:30:12.333Z,30.40
2023-08-17T17:33:01.064Z,30.30
2023-08-17T17:35:51.364Z,30.20
2023-08-17T17:38:40.988Z,30.10
2023-08-17T17:41:29.868Z,30.10
2023-08-17T17:44:18.641Z,29.90
2023-08-17T17:47:08.008Z,29.90
2023-08-17T17:49:56.971Z,29.80
2023-08-17T17:52:48.749Z,29.80
2023-08-17T17:55:37.726Z,29.80
2023-08-17T17:58:26.714Z,29.70
2023-08-17T18:01:15.820Z,29.70
2023-08-17T18:04:05.308Z,29.60
2023-08-17T18:06:54.807Z,29.50
2023-08-17T18:09:45.001Z,29.40
2023-08-17T18:12:33.896Z,29.40
2023-08-17T18:15:22.967Z,29.20
2023-08-17T18:18:11.907Z,29.10
2023-08-17T18:21:01.415Z,29.10
2023-08-17T18:23:51.833Z,29.00
2023-08-17T18:26:41.867Z,28.90
2023-08-17T18:29:30.750Z,28.90
2023-08-17T18:32:19.597Z,28.90
2023-08-17T18:35:09.562Z,28.80
2023-08-17T18:37:58.253Z,28.70
2023-08-17T18:40:47.909Z,28.70
2023-08-17T18:43:38.097Z,28.60
2023-08-17T18:46:26.893Z,28.60
2023-08-17T18:49:16.368Z,28.50
2023-08-17T18:52:07.539Z,28.40
2023-08-17T18:55:01.641Z,28.30
2023-08-17T18:57:50.753Z,28.30
2023-08-17T19:00:41.743Z,28.40
2023-08-17T19:03:31.679Z,28.40
2023-08-17T19:06:20.955Z,28.30
2023-08-17T19:09:09.732Z,28.00
2023-08-17T19:11:58.446Z,27.80
2023-08-17T19:14:48.035Z,27.80
2023-08-17T19:17:38.894Z,27.60
2023-08-17T19:20:27.750Z,27.70
2023-08-17T19:23:16.600Z,28.00
2023-08-17T19:26:06.818Z,28.10
2023-08-17T19:28:56.282Z,28.10
2023-08-17T19:31:45.307Z,27.90
2023-08-17T19:34:37.986Z,27.90
2023-08-17T19:37:27.349Z,27.90
2023-08-17T19:40:19.093Z,28.00
2023-08-17T19:43:08.055Z,27.90
2023-08-17T19:45:57.066Z,27.90
2023-08-17T19:48:45.960Z,27.90
2023-08-17T19:51:36.176Z,27.80
2023-08-17T19:54:24.920Z,27.80
2023-08-17T19:57:16.138Z,27.80
2023-08-17T20:00:06.881Z,27.80
2023-08-17T20:03:01.883Z,27.70
2023-08-17T20:05:51.100Z,27.60
2023-08-17T20:08:41.723Z,27.50
2023-08-17T20:11:30.424Z,27.60
2023-08-17T20:14:21.194Z,27.50
2023-08-17T20:17:12.381Z,27.40
2023-08-17T20:20:01.199Z,27.40
2023-08-17T20:22:49.889Z,27.40
2023-08-17T20:25:40.110Z,27.40
2023-08-17T20:28:28.944Z,27.30
2023-08-17T20:31:17.836Z,27.20
2023-08-17T20:34:07.036Z,27.10
2023-08-17T20:36:58.770Z,27.00
2023-08-17T20:39:47.886Z,26.80
2023-08-17T20:42:38.064Z,26.80
2023-08-17T20:45:27.001Z,26.80
2023-08-17T20:48:15.817Z,26.70
2023-08-17T20:51:06.581Z,26.70
2023-08-17T20:53:58.638Z,26.60
2023-08-17T20:56:47.450Z,26.60
2023-08-17T20:59:37.850Z,26.50
2023-08-17T21:02:27.928Z,26.50
2023-08-17T21:05:17.007Z,26.50
2023-08-17T21:08:06.442Z,26.50
2023-08-17T21:10:55.636Z,26.50
2023-08-17T21:13:44.451Z,26.40
2023-08-17T21:16:35.264Z,26.40
2023-08-17T21:19:25.167Z,26.50
2023-08-17T21:22:14.309Z,26.40
2023-08-17T21:25:03.999Z,26.40
2023-08-17T21:27:52.768Z,26.40
2023-08-17T21:30:41.653Z,26.40
2023-08-17T21:33:32.069Z,26.40
2023-08-17T21:36:21.227Z,26.40
2023-08-17T21:39:10.506Z,26.20
2023-08-17T21:41:59.224Z,26.10
2023-08-17T21:44:48.221Z,26.00
2023-08-17T21:47:37.393Z,26.00
2023-08-17T21:50:27.785Z,25.90
2023-08-17T21:53:16.586Z,25.80
2023-08-17T21:56:06.093Z,25.80
2023-08-17T21:58:57.529Z,25.80
2023-08-17T22:01:46.220Z,25.80
2023-08-17T22:04:35.175Z,25.70
2023-08-17T22:07:25.702Z,25.80
2023-08-17T22:10:14.991Z,25.80
2023-08-17T22:13:04.063Z,25.70
2023-08-17T22:15:53.108Z,25.80
2023-08-17T22:18:42.600Z,25.80
2023-08-17T22:21:31.883Z,25.80
2023-08-17T22:24:22.286Z,25.70
2023-08-17T22:27:11.270Z,25.70
2023-08-17T22:30:00.140Z,25.70
2023-08-17T22:32:49.292Z,25.80
2023-08-17T22:35:38.163Z,25.60
2023-08-17T22:38:26.854Z,25.50
2023-08-17T22:41:16.865Z,25.60
2023-08-17T22:44:06.457Z,25.60
2023-08-17T22:46:57.358Z,25.50
2023-08-17T22:49:46.136Z,25.60
2023-08-17T22:52:35.098Z,25.70
2023-08-17T22:55:24.448Z,25.70
2023-08-17T22:58:16.016Z,25.70
2023-08-17T23:01:05.184Z,25.70
2023-08-17T23:03:54.143Z,25.70
2023-08-17T23:06:43.132Z,25.80
2023-08-17T23:09:32.846Z,25.80
2023-08-17T23:12:21.635Z,25.70
2023-08-17T23:15:12.317Z,25.70
2023-08-17T23:18:01.264Z,25.60
2023-08-17T23:20:50.251Z,25.60
2023-08-17T23:23:39.329Z,25.60
2023-08-17T23:26:28.120Z,25.60
2023-08-17T23:29:18.811Z,25.60
2023-08-17T23:32:26.209Z,25.60
2023-08-17T23:35:16.548Z,25.60
2023-08-17T23:38:05.994Z,25.60
2023-08-17T23:40:57.599Z,25.50
2023-08-17T23:43:46.476Z,25.50
2023-08-17T23:46:35.538Z,25.60
2023-08-17T23:49:25.834Z,25.50
2023-08-17T23:52:14.555Z,25.50
2023-08-17T23:55:04.391Z,25.50
2023-08-17T23:57:53.936Z,25.50
